Kota Waris — S6RJ — position and weather

sailwx.info

Track history (hours):
 
Tides and Currents Weather Stations Pressure Air Temp Water Temp Dewpoint Dewpoint Depression Visibility Wind Speed Wind Dir Waves Ship Positions

Kota Waris

Last reported at 2014-Aug-13 00:06 UTC. Time now 2014-Aug-21 06:18 UTC.
Position N 01°09' E 103°46'.
Warning: this ship's position is 8 days out of date.

Length 185 m; draft 8.5 m.

Type: Ship (hazmat cat A). MMSI: 564482000.

Date/timePositionNaut miles runAvg speedWind from/ knotsBaromVisibWave heightAir tempDewpointWater temp
2014-Aug-13 00:06N 01°09' E 103°46'5 8.7
2014-Aug-12 23:32N 01°12' E 103°50'4 4.3
2014-Aug-12 22:32N 01°16' E 103°50'0 0.0
2014-Aug-12 21:29N 01°16' E 103°50'0 0.0
2014-Aug-12 20:20N 01°16' E 103°50'0 0.0
2014-Aug-12 19:32N 01°16' E 103°50'0 0.0
2014-Aug-12 18:32N 01°16' E 103°50'0 0.0
2014-Aug-12 17:20N 01°16' E 103°50'0 0.0
2014-Aug-12 16:11N 01°16' E 103°50'0 0.0
2014-Aug-12 15:29N 01°16' E 103°50'0 0.0
2014-Aug-12 14:29N 01°16' E 103°50'0 0.0
2014-Aug-12 12:08N 01°16' E 103°50'0 0.5
2014-Aug-12 11:34N 01°16' E 103°50'4 3.6
2014-Aug-12 10:28N 01°12' E 103°49'6 5.7
2014-Aug-12 09:27N 01°17' E 103°46'0 0.0
2014-Aug-11 17:32N 01°17' E 103°46'0 0.0
2014-Aug-11 12:23N 01°17' E 103°46'1 1.5
2014-Aug-11 11:31N 01°16' E 103°46'  
Track history (hours):
 
Tides and Currents Weather Stations Pressure Air Temp Water Temp Dewpoint Dewpoint Depression Visibility Wind Speed Wind Dir Waves Ship Positions

Kota Waris

Last reported at 2014-Aug-13 00:06 UTC. Time now 2014-Aug-21 06:18 UTC.
Position N 01°09' E 103°46'.
Warning: this ship's position is 8 days out of date.

Length 185 m; draft 8.5 m.

Type: Ship (hazmat cat A). MMSI: 564482000.

Date/timePositionNaut miles runAvg speedWind from/ knotsBaromVisibWave heightAir tempDewpointWater temp
2014-Aug-13 00:06N 01°09' E 103°46'5 8.7
2014-Aug-12 23:32N 01°12' E 103°50'4 4.3
2014-Aug-12 22:32N 01°16' E 103°50'0 0.0
2014-Aug-12 21:29N 01°16' E 103°50'0 0.0
2014-Aug-12 20:20N 01°16' E 103°50'0 0.0
2014-Aug-12 19:32N 01°16' E 103°50'0 0.0
2014-Aug-12 18:32N 01°16' E 103°50'0 0.0
2014-Aug-12 17:20N 01°16' E 103°50'0 0.0
2014-Aug-12 16:11N 01°16' E 103°50'0 0.0
2014-Aug-12 15:29N 01°16' E 103°50'0 0.0
2014-Aug-12 14:29N 01°16' E 103°50'0 0.0
2014-Aug-12 12:08N 01°16' E 103°50'0 0.5
2014-Aug-12 11:34N 01°16' E 103°50'4 3.6
2014-Aug-12 10:28N 01°12' E 103°49'6 5.7
2014-Aug-12 09:27N 01°17' E 103°46'0 0.0
2014-Aug-11 17:32N 01°17' E 103°46'0 0.0
2014-Aug-11 12:23N 01°17' E 103°46'1 1.5
2014-Aug-11 11:31N 01°16' E 103°46'  

Dump ship's entire track history